Time;durP1;ratioP1;P1;durP2;ratioP2;P2;SDS_P1;SDS_P2;PMS_P1;PMS_P2;Temp;Humidity;BMP_temperature;BMP_pressure;BME280_temperature;BME280_humidity;BME280_pressure;Samples;Min_cycle;Max_cycle;Signal;HPM_P1;HPM_P2
2023/06/07 00:01:44;;;;;;;;;;;10.90;99.90;;;;;;5024036;28;19999;-85
2023/06/07 00:04:11;;;;;;;;;;;10.90;99.90;;;;;;5022184;28;20014;-86
2023/06/07 00:06:39;;;;;;;;;;;9.60;99.90;;;;;;5023589;28;19924;-86
2023/06/07 00:09:09;;;;;;;;;;;10.90;99.90;;;;;;5010842;28;19931;-86
2023/06/07 00:11:35;;;;;;;;;;;10.80;99.90;;;;;;5037544;28;19928;-86
2023/06/07 00:14:01;;;;;;;;;;;10.80;99.90;;;;;;5032584;28;20250;-86
2023/06/07 00:16:26;;;;;;;;;;;10.80;99.90;;;;;;5032670;28;19928;-86
2023/06/07 00:18:52;;;;;;;;;;;11.00;99.90;;;;;;5035838;28;20388;-86
2023/06/07 00:21:22;;;;;;;;;;;11.20;99.90;;;;;;5017336;28;19960;-85
2023/06/07 00:23:50;;;;;;;;;;;10.80;99.90;;;;;;5017395;28;20314;-86
2023/06/07 00:26:20;;;;;;;;;;;10.80;99.90;;;;;;5014159;28;19932;-86
2023/06/07 00:28:46;;;;;;;;;;;11.10;99.90;;;;;;5019897;28;19932;-86
2023/06/07 00:31:12;;;;;;;;;;;10.80;99.90;;;;;;5020588;28;19924;-87
2023/06/07 00:33:38;;;;;;;;;;;10.80;99.90;;;;;;5019393;28;20019;-87
2023/06/07 00:36:03;;;;;;;;;;;10.90;99.90;;;;;;5029951;28;19925;-87
2023/06/07 00:38:29;;;;;;;;;;;10.80;99.90;;;;;;5017671;28;20370;-87
2023/06/07 00:40:55;;;;;;;;;;;8.80;99.90;;;;;;5027951;28;19925;-86
2023/06/07 00:43:20;;;;;;;;;;;10.70;99.90;;;;;;5019761;28;20286;-87
2023/06/07 00:45:46;;;;;;;;;;;10.70;99.90;;;;;;5036570;28;19925;-86
2023/06/07 00:48:12;;;;;;;;;;;10.40;99.90;;;;;;5036024;28;20370;-87
2023/06/07 00:50:38;;;;;;;;;;;10.60;99.90;;;;;;5035185;28;19932;-86
2023/06/07 00:53:04;;;;;;;;;;;10.60;99.90;;;;;;5019837;28;19931;-87
2023/06/07 00:55:30;;;;;;;;;;;10.50;99.90;;;;;;5019905;28;20019;-86
2023/06/07 00:57:56;;;;;;;;;;;10.50;99.90;;;;;;5019296;28;19924;-89
2023/06/07 01:00:26;;;;;;;;;;;10.50;99.90;;;;;;5035971;28;20420;-87
2023/06/07 01:02:57;;;;;;;;;;;10.60;99.90;;;;;;5021812;28;19933;-88
2023/06/07 01:05:23;;;;;;;;;;;10.50;99.90;;;;;;5035450;28;19932;-86
2023/06/07 01:07:52;;;;;;;;;;;10.50;99.90;;;;;;5019273;28;19925;-86
2023/06/07 01:10:17;;;;;;;;;;;10.50;99.90;;;;;;5024108;28;19980;-86
2023/06/07 01:12:47;;;;;;;;;;;9.60;99.90;;;;;;5036313;28;19925;-86
2023/06/07 01:15:13;;;;;;;;;;;10.60;99.90;;;;;;5035664;28;20027;-87
2023/06/07 01:17:41;;;;;;;;;;;10.50;99.90;;;;;;5019516;28;20422;-86
2023/06/07 01:20:11;;;;;;;;;;;10.40;99.90;;;;;;5017744;28;19929;-86
2023/06/07 01:22:42;;;;;;;;;;;9.40;99.90;;;;;;5031602;28;19933;-86
2023/06/07 01:25:10;;;;;;;;;;;10.50;99.90;;;;;;5024966;28;19967;-86
2023/06/07 01:27:41;;;;;;;;;;;10.50;99.90;;;;;;5018952;28;20291;-87
2023/06/07 01:30:10;;;;;;;;;;;10.50;99.90;;;;;;5028371;28;19929;-86
2023/06/07 01:32:36;;;;;;;;;;;10.60;99.90;;;;;;5026013;28;19925;-86
2023/06/07 01:35:03;;;;;;;;;;;10.50;99.90;;;;;;5017423;28;19968;-86
2023/06/07 01:37:30;;;;;;;;;;;10.50;99.90;;;;;;5034405;28;19932;-87
2023/06/07 01:39:59;;;;;;;;;;;10.50;99.90;;;;;;5018558;28;19925;-87
2023/06/07 01:42:25;;;;;;;;;;;10.30;99.90;;;;;;5027800;28;19925;-87
2023/06/07 01:44:51;;;;;;;;;;;10.60;99.90;;;;;;5018887;28;19932;-87
2023/06/07 01:47:17;;;;;;;;;;;10.40;99.90;;;;;;5011787;28;19929;-86
2023/06/07 01:49:43;;;;;;;;;;;10.30;99.90;;;;;;5033551;28;19994;-87
2023/06/07 01:52:08;;;;;;;;;;;10.20;99.90;;;;;;5015934;28;19987;-87
2023/06/07 01:54:37;;;;;;;;;;;10.20;99.90;;;;;;5011200;28;20459;-86
2023/06/07 01:57:04;;;;;;;;;;;10.20;99.90;;;;;;5014836;28;20363;-87
2023/06/07 01:59:36;;;;;;;;;;;10.20;99.90;;;;;;5015143;28;20359;-86
2023/06/07 02:02:12;;;;;;;;;;;8.50;99.90;;;;;;5017214;28;20009;-86
2023/06/07 02:04:41;;;;;;;;;;;10.40;99.90;;;;;;5017636;28;19960;-86
2023/06/07 02:07:09;;;;;;;;;;;10.20;99.90;;;;;;5018637;28;19943;-86
2023/06/07 02:09:35;;;;;;;;;;;10.40;99.90;;;;;;5019119;28;19979;-86
2023/06/07 02:12:01;;;;;;;;;;;10.20;99.90;;;;;;5002461;28;20008;-87
2023/06/07 02:14:27;;;;;;;;;;;10.00;99.90;;;;;;5023483;28;19976;-86
2023/06/07 02:16:53;;;;;;;;;;;9.60;99.90;;;;;;5006539;28;19972;-86
2023/06/07 02:19:19;;;;;;;;;;;10.10;99.90;;;;;;5005675;28;19925;-87
2023/06/07 02:21:44;;;;;;;;;;;10.20;99.90;;;;;;5046716;28;20021;-87
2023/06/07 02:24:12;;;;;;;;;;;10.20;99.90;;;;;;5015522;28;19975;-86
2023/06/07 02:26:38;;;;;;;;;;;10.50;99.90;;;;;;5024515;28;19925;-87
2023/06/07 02:29:04;;;;;;;;;;;10.50;99.90;;;;;;5029305;28;20420;-87
2023/06/07 02:31:30;;;;;;;;;;;10.50;99.90;;;;;;5018898;28;20326;-87
2023/06/07 02:33:55;;;;;;;;;;;10.50;99.90;;;;;;5021501;28;20025;-87
2023/06/07 02:36:22;;;;;;;;;;;10.50;99.90;;;;;;5035195;28;19971;-86
2023/06/07 02:38:48;;;;;;;;;;;10.50;99.90;;;;;;5034340;28;19939;-86
2023/06/07 02:41:14;;;;;;;;;;;10.50;99.90;;;;;;5030325;28;19925;-86
2023/06/07 02:43:39;;;;;;;;;;;10.60;99.90;;;;;;5019047;28;20039;-87
2023/06/07 02:46:06;;;;;;;;;;;10.70;99.90;;;;;;5050765;28;19971;-87
2023/06/07 02:48:32;;;;;;;;;;;10.70;99.90;;;;;;5030316;28;19924;-87
2023/06/07 02:50:57;;;;;;;;;;;10.70;99.90;;;;;;5017370;28;19932;-86
2023/06/07 02:53:24;;;;;;;;;;;10.80;99.90;;;;;;5043568;28;19925;-87
2023/06/07 02:55:50;;;;;;;;;;;8.70;99.90;;;;;;5035076;28;19955;-87
2023/06/07 02:58:16;;;;;;;;;;;10.80;99.90;;;;;;5017053;28;19933;-87
2023/06/07 03:00:41;;;;;;;;;;;11.00;99.90;;;;;;5034975;28;20294;-86
2023/06/07 03:03:07;;;;;;;;;;;11.00;99.90;;;;;;5018317;28;20276;-86
2023/06/07 03:05:33;;;;;;;;;;;11.00;99.90;;;;;;5034480;28;19971;-86
2023/06/07 03:08:01;;;;;;;;;;;11.00;99.90;;;;;;5037715;28;20193;-87
2023/06/07 03:10:26;;;;;;;;;;;12.90;99.90;;;;;;5006861;28;19987;-86
2023/06/07 03:12:52;;;;;;;;;;;11.00;99.90;;;;;;5038723;28;19987;-86
2023/06/07 03:15:19;;;;;;;;;;;11.00;99.90;;;;;;5020062;28;20008;-87
2023/06/07 03:17:44;;;;;;;;;;;11.00;99.90;;;;;;5017205;28;20019;-87
2023/06/07 03:20:10;;;;;;;;;;;11.10;99.90;;;;;;5016842;28;20012;-86
2023/06/07 03:22:36;;;;;;;;;;;11.10;99.90;;;;;;4994991;28;19925;-86
2023/06/07 03:25:02;;;;;;;;;;;11.10;99.90;;;;;;5014258;28;19925;-86
2023/06/07 03:27:29;;;;;;;;;;;11.10;99.90;;;;;;5016571;28;19932;-87
2023/06/07 03:29:55;;;;;;;;;;;11.20;99.90;;;;;;5022885;28;19925;-86
2023/06/07 03:32:20;;;;;;;;;;;11.20;99.90;;;;;;5015565;28;19924;-86
2023/06/07 03:34:46;;;;;;;;;;;11.20;99.90;;;;;;5037223;28;19932;-86
2023/06/07 03:37:11;;;;;;;;;;;11.20;99.90;;;;;;5019342;28;19936;-85
2023/06/07 03:39:37;;;;;;;;;;;11.20;99.90;;;;;;5041738;28;19932;-87
2023/06/07 03:42:03;;;;;;;;;;;11.30;99.90;;;;;;5014677;28;19924;-85
2023/06/07 03:44:28;;;;;;;;;;;11.30;99.90;;;;;;5014012;28;19925;-86
2023/06/07 03:46:54;;;;;;;;;;;11.40;99.90;;;;;;5037947;28;19974;-86
2023/06/07 03:49:19;;;;;;;;;;;11.30;99.90;;;;;;5016498;28;19978;-87
2023/06/07 03:51:45;;;;;;;;;;;11.40;99.90;;;;;;5018454;28;19951;-86
2023/06/07 03:54:11;;;;;;;;;;;11.40;99.90;;;;;;5033771;28;19931;-86
2023/06/07 03:56:41;;;;;;;;;;;11.40;99.90;;;;;;5037863;28;20306;-86
2023/06/07 03:59:07;;;;;;;;;;;11.40;99.90;;;;;;5036932;28;19936;-87
2023/06/07 04:01:32;;;;;;;;;;;11.40;99.90;;;;;;5033854;28;20371;-86
2023/06/07 04:03:58;;;;;;;;;;;11.50;99.90;;;;;;5027658;28;20259;-87
2023/06/07 04:06:24;;;;;;;;;;;11.50;99.90;;;;;;5021334;28;20012;-86
2023/06/07 04:08:52;;;;;;;;;;;11.40;99.90;;;;;;5036949;28;19959;-86
2023/06/07 04:11:19;;;;;;;;;;;11.50;99.90;;;;;;5000506;28;20326;-86
2023/06/07 04:13:47;;;;;;;;;;;11.50;99.90;;;;;;5022755;28;19933;-86
2023/06/07 04:16:12;;;;;;;;;;;11.50;99.90;;;;;;5021001;28;19925;-87
2023/06/07 04:18:38;;;;;;;;;;;11.60;99.90;;;;;;5035465;28;19932;-88
2023/06/07 04:21:05;;;;;;;;;;;11.60;99.90;;;;;;5020771;28;20321;-87
2023/06/07 04:23:31;;;;;;;;;;;11.60;99.90;;;;;;5020555;28;19928;-88
2023/06/07 04:25:58;;;;;;;;;;;11.60;99.90;;;;;;5037340;28;19929;-87
2023/06/07 04:28:24;;;;;;;;;;;11.50;99.90;;;;;;5024207;28;19925;-87
2023/06/07 04:31:03;;;;;;;;;;;11.50;99.90;;;;;;5037308;28;19931;-87
2023/06/07 04:33:29;;;;;;;;;;;11.60;99.90;;;;;;5035936;28;19931;-87
2023/06/07 04:35:57;;;;;;;;;;;11.60;99.90;;;;;;5030284;28;19925;-87
2023/06/07 04:38:23;;;;;;;;;;;11.70;99.90;;;;;;5022197;28;19925;-87
2023/06/07 04:40:52;;;;;;;;;;;11.70;99.90;;;;;;5035095;28;19978;-86
2023/06/07 04:43:18;;;;;;;;;;;11.70;99.90;;;;;;5029706;28;20366;-86
2023/06/07 04:45:53;;;;;;;;;;;11.70;99.90;;;;;;5026987;28;19928;-86
2023/06/07 04:48:22;;;;;;;;;;;11.70;99.90;;;;;;5007912;28;19932;-86
2023/06/07 04:50:49;;;;;;;;;;;11.70;99.90;;;;;;5014599;28;19925;-87
2023/06/07 04:53:19;;;;;;;;;;;11.80;99.90;;;;;;5015131;28;19925;-86
2023/06/07 04:55:45;;;;;;;;;;;11.80;99.90;;;;;;5020818;28;19974;-87
2023/06/07 04:58:11;;;;;;;;;;;11.80;99.90;;;;;;4996663;28;19925;-87
2023/06/07 05:00:39;;;;;;;;;;;11.80;99.90;;;;;;5036186;28;19940;-87
2023/06/07 05:03:08;;;;;;;;;;;12.00;99.90;;;;;;5036290;28;19924;-86
2023/06/07 05:05:36;;;;;;;;;;;12.00;99.90;;;;;;5016161;28;20095;-87
2023/06/07 05:08:09;;;;;;;;;;;12.00;99.90;;;;;;5012486;28;20309;-87
2023/06/07 05:10:34;;;;;;;;;;;12.10;99.90;;;;;;5018028;28;19933;-87
2023/06/07 05:13:00;;;;;;;;;;;12.00;99.90;;;;;;5034901;28;20252;-87
2023/06/07 05:15:27;;;;;;;;;;;12.10;99.90;;;;;;5019653;28;19931;-86
2023/06/07 05:17:53;;;;;;;;;;;12.10;99.90;;;;;;5020178;28;20259;-87
2023/06/07 05:20:20;;;;;;;;;;;12.10;99.90;;;;;;5029342;28;19961;-86
2023/06/07 05:22:46;;;;;;;;;;;12.10;99.90;;;;;;5036124;28;19964;-87
2023/06/07 05:25:12;;;;;;;;;;;12.10;99.90;;;;;;5035937;28;19925;-86
2023/06/07 05:27:38;;;;;;;;;;;12.10;99.90;;;;;;5035507;28;19925;-87
2023/06/07 05:30:07;;;;;;;;;;;12.10;99.90;;;;;;5034623;28;19924;-86
2023/06/07 05:32:33;;;;;;;;;;;12.20;99.90;;;;;;5019317;28;20382;-86
2023/06/07 05:34:59;;;;;;;;;;;12.20;99.90;;;;;;5034175;28;19975;-86
2023/06/07 05:37:25;;;;;;;;;;;12.20;99.90;;;;;;5019474;28;20286;-87
2023/06/07 05:39:51;;;;;;;;;;;12.10;99.90;;;;;;5035597;28;19925;-86
2023/06/07 05:42:17;;;;;;;;;;;12.20;99.90;;;;;;5024552;28;20391;-86
2023/06/07 05:44:46;;;;;;;;;;;12.30;99.90;;;;;;5022454;28;20029;-86
2023/06/07 05:47:12;;;;;;;;;;;12.30;99.90;;;;;;5035694;28;19924;-86
2023/06/07 05:49:38;;;;;;;;;;;12.40;99.90;;;;;;5017552;28;19925;-86
2023/06/07 05:52:03;;;;;;;;;;;12.50;99.90;;;;;;5019114;28;19929;-86
2023/06/07 05:54:29;;;;;;;;;;;12.20;99.90;;;;;;5019367;28;20059;-86
2023/06/07 05:56:55;;;;;;;;;;;12.70;99.90;;;;;;5018794;28;19932;-87
2023/06/07 05:59:21;;;;;;;;;;;12.80;99.90;;;;;;5034377;28;19991;-86
2023/06/07 06:01:47;;;;;;;;;;;12.90;99.90;;;;;;5035580;28;19932;-86
2023/06/07 06:04:13;;;;;;;;;;;12.90;99.90;;;;;;5005342;28;20011;-86
2023/06/07 06:06:40;;;;;;;;;;;12.90;99.90;;;;;;5027894;28;20012;-86
2023/06/07 06:09:05;;;;;;;;;;;13.00;99.90;;;;;;5033004;28;19924;-87
2023/06/07 06:11:31;;;;;;;;;;;13.00;99.90;;;;;;5029831;28;20508;-87
2023/06/07 06:13:56;;;;;;;;;;;13.00;99.90;;;;;;5027772;28;19929;-88
2023/06/07 06:16:22;;;;;;;;;;;13.00;99.90;;;;;;5024565;28;19983;-87
2023/06/07 06:18:48;;;;;;;;;;;13.00;99.90;;;;;;5000368;28;19971;-87
2023/06/07 06:21:16;;;;;;;;;;;13.10;99.90;;;;;;5017932;28;19932;-86
2023/06/07 06:23:42;;;;;;;;;;;13.10;99.90;;;;;;5023570;28;19976;-87
2023/06/07 06:26:07;;;;;;;;;;;13.10;99.90;;;;;;5017718;28;19975;-87
2023/06/07 06:28:33;;;;;;;;;;;13.10;99.90;;;;;;5034708;28;19925;-87
2023/06/07 06:31:01;;;;;;;;;;;13.20;99.90;;;;;;5035203;28;19947;-87
2023/06/07 06:33:34;;;;;;;;;;;13.30;99.90;;;;;;5017547;28;19936;-87
2023/06/07 06:35:59;;;;;;;;;;;13.30;99.90;;;;;;5001021;28;19925;-86
2023/06/07 06:38:25;;;;;;;;;;;13.60;99.90;;;;;;5033561;28;19932;-86
2023/06/07 06:40:51;;;;;;;;;;;12.10;99.90;;;;;;5020556;28;19925;-87
2023/06/07 06:43:17;;;;;;;;;;;13.40;99.90;;;;;;5024721;28;19968;-87
2023/06/07 06:45:45;;;;;;;;;;;13.40;99.90;;;;;;5010196;28;19940;-86
2023/06/07 06:48:10;;;;;;;;;;;13.50;99.90;;;;;;5040623;28;20012;-86
2023/06/07 06:50:38;;;;;;;;;;;13.50;99.90;;;;;;5036778;28;20452;-86
2023/06/07 06:53:04;;;;;;;;;;;13.50;99.90;;;;;;5041898;28;19974;-86
2023/06/07 06:55:33;;;;;;;;;;;13.90;99.90;;;;;;5029622;28;19925;-86
2023/06/07 06:58:00;;;;;;;;;;;13.60;99.90;;;;;;5041219;28;20360;-86
2023/06/07 07:00:29;;;;;;;;;;;13.70;99.90;;;;;;5031158;28;19925;-85
2023/06/07 07:02:54;;;;;;;;;;;13.70;99.90;;;;;;5008883;28;19925;-85
2023/06/07 07:05:21;;;;;;;;;;;14.00;99.90;;;;;;5018542;28;20272;-86
2023/06/07 07:07:49;;;;;;;;;;;14.00;99.90;;;;;;5022992;28;19929;-86
2023/06/07 07:10:16;;;;;;;;;;;14.10;99.90;;;;;;5024241;28;20398;-87
2023/06/07 07:12:42;;;;;;;;;;;14.10;99.90;;;;;;5022246;28;20019;-87
2023/06/07 07:15:11;;;;;;;;;;;14.20;99.90;;;;;;5019650;28;20011;-88
2023/06/07 07:17:47;;;;;;;;;;;14.20;99.90;;;;;;5021892;28;19936;-88
2023/06/07 07:20:16;;;;;;;;;;;14.30;99.90;;;;;;5019876;28;20251;-88
2023/06/07 07:22:45;;;;;;;;;;;14.40;99.90;;;;;;5011079;28;20374;-87
2023/06/07 07:25:11;;;;;;;;;;;14.70;99.90;;;;;;5021376;28;19932;-88
2023/06/07 07:27:37;;;;;;;;;;;14.70;99.90;;;;;;5021499;28;19929;-88
2023/06/07 07:30:04;;;;;;;;;;;14.70;99.90;;;;;;5018371;28;20456;-88
2023/06/07 07:32:32;;;;;;;;;;;14.90;99.90;;;;;;5035974;28;19925;-87
2023/06/07 07:34:58;;;;;;;;;;;14.90;99.90;;;;;;5036729;28;19925;-88
2023/06/07 07:37:28;;;;;;;;;;;15.00;99.90;;;;;;5021969;28;20401;-88
2023/06/07 07:40:01;;;;;;;;;;;14.90;99.90;;;;;;5019102;28;20066;-88
2023/06/07 07:42:34;;;;;;;;;;;14.80;99.90;;;;;;5038056;28;19937;-88
2023/06/07 07:45:00;;;;;;;;;;;15.00;99.90;;;;;;5038131;28;19983;-88
2023/06/07 07:47:26;;;;;;;;;;;14.80;99.90;;;;;;5021454;28;19931;-88
2023/06/07 07:49:52;;;;;;;;;;;16.60;99.90;;;;;;5019974;28;19925;-86
2023/06/07 07:52:17;;;;;;;;;;;14.70;99.90;;;;;;5037065;28;20011;-88
2023/06/07 07:54:45;;;;;;;;;;;14.80;99.90;;;;;;5033106;28;20008;-88
2023/06/07 07:57:13;;;;;;;;;;;14.50;99.90;;;;;;5021483;28;20248;-88
2023/06/07 07:59:39;;;;;;;;;;;14.30;99.90;;;;;;5033875;28;19932;-88
2023/06/07 08:02:05;;;;;;;;;;;14.30;99.90;;;;;;5037779;28;20359;-86
2023/06/07 08:04:31;;;;;;;;;;;14.40;99.90;;;;;;5033748;28;20007;-88
2023/06/07 08:06:56;;;;;;;;;;;14.30;99.90;;;;;;5050596;28;19947;-88
2023/06/07 08:09:22;;;;;;;;;;;14.30;99.90;;;;;;5029706;28;19968;-86
2023/06/07 08:11:48;;;;;;;;;;;14.70;99.90;;;;;;5025027;28;19925;-87
2023/06/07 08:14:25;;;;;;;;;;;14.70;99.90;;;;;;5032686;28;20032;-88
2023/06/07 08:16:51;;;;;;;;;;;14.80;99.90;;;;;;5018728;28;19951;-88
2023/06/07 08:19:16;;;;;;;;;;;14.40;99.90;;;;;;5025357;28;19959;-88
2023/06/07 08:21:47;;;;;;;;;;;14.60;99.90;;;;;;5040640;28;19925;-88
2023/06/07 08:24:17;;;;;;;;;;;14.50;99.90;;;;;;5029624;28;20302;-88
2023/06/07 08:26:45;;;;;;;;;;;14.70;99.90;;;;;;5029574;28;19925;-88
2023/06/07 08:29:11;;;;;;;;;;;15.10;99.90;;;;;;5033448;28;19925;-87
2023/06/07 08:31:41;;;;;;;;;;;14.70;99.90;;;;;;5016848;28;20367;-88
2023/06/07 08:34:07;;;;;;;;;;;13.40;99.90;;;;;;5026157;28;20351;-88
2023/06/07 08:36:32;;;;;;;;;;;14.90;99.90;;;;;;5029815;28;19941;-88
2023/06/07 08:38:58;;;;;;;;;;;14.90;99.90;;;;;;5033412;28;19925;-87
2023/06/07 08:41:27;;;;;;;;;;;15.00;99.90;;;;;;5007151;28;19964;-88
2023/06/07 08:43:53;;;;;;;;;;;15.20;99.90;;;;;;5020232;28;19951;-87
2023/06/07 08:46:19;;;;;;;;;;;15.10;99.90;;;;;;5030434;28;19960;-85
2023/06/07 08:48:48;;;;;;;;;;;15.20;99.90;;;;;;5028175;28;20390;-87
2023/06/07 08:51:15;;;;;;;;;;;15.30;99.90;;;;;;5020390;28;19924;-87
2023/06/07 08:53:49;;;;;;;;;;;16.00;99.90;;;;;;5019882;28;20367;-87
2023/06/07 08:56:15;;;;;;;;;;;15.50;99.90;;;;;;5036794;28;19970;-87
2023/06/07 08:58:41;;;;;;;;;;;15.50;99.90;;;;;;5028718;28;19929;-86
2023/06/07 09:01:08;;;;;;;;;;;15.70;99.90;;;;;;5010754;28;20008;-86
2023/06/07 09:03:33;;;;;;;;;;;15.90;99.90;;;;;;5034085;28;19932;-87
2023/06/07 09:06:00;;;;;;;;;;;15.80;99.90;;;;;;5016099;28;19925;-86
2023/06/07 09:08:26;;;;;;;;;;;15.90;99.90;;;;;;5027455;28;19986;-86
2023/06/07 09:10:52;;;;;;;;;;;16.10;99.90;;;;;;5010964;28;20244;-87
2023/06/07 09:13:21;;;;;;;;;;;16.10;99.90;;;;;;5024497;28;19932;-87
2023/06/07 09:15:52;;;;;;;;;;;16.20;99.90;;;;;;5016011;28;19982;-87
2023/06/07 09:18:18;;;;;;;;;;;16.30;99.90;;;;;;5014401;28;19978;-86
2023/06/07 09:20:44;;;;;;;;;;;16.30;99.90;;;;;;5020325;28;20012;-86
2023/06/07 09:23:23;;;;;;;;;;;;;;;;;;;;;
2023/06/07 09:25:54;;;;;;;;;;;16.50;99.90;;;;;;5036108;28;20003;-85
2023/06/07 09:28:22;;;;;;;;;;;16.50;99.90;;;;;;5030170;28;19925;-87
2023/06/07 09:30:55;;;;;;;;;;;16.50;99.90;;;;;;5006672;28;19976;-86
2023/06/07 09:33:28;;;;;;;;;;;16.40;99.90;;;;;;5031398;28;19929;-86
2023/06/07 09:36:03;;;;;;;;;;;16.60;99.90;;;;;;5031234;28;20019;-86
2023/06/07 09:38:29;;;;;;;;;;;16.60;99.90;;;;;;5029353;28;19925;-86
2023/06/07 09:40:57;;;;;;;;;;;16.70;99.90;;;;;;5031483;28;19925;-87
2023/06/07 09:43:23;;;;;;;;;;;16.70;99.90;;;;;;5009351;28;19925;-87
2023/06/07 09:45:56;;;;;;;;;;;16.80;99.90;;;;;;5036511;28;19925;-87
2023/06/07 09:48:22;;;;;;;;;;;16.90;99.90;;;;;;5027209;28;19963;-88
2023/06/07 09:50:56;;;;;;;;;;;17.00;99.90;;;;;;5025355;28;20371;-88
2023/06/07 09:53:22;;;;;;;;;;;17.10;99.90;;;;;;5013986;28;20371;-87
2023/06/07 09:55:48;;;;;;;;;;;17.10;99.90;;;;;;5031626;28;20393;-84
2023/06/07 09:58:32;;;;;;;;;;;17.20;99.90;;;;;;5007461;28;19925;-86
2023/06/07 10:00:58;;;;;;;;;;;17.50;99.90;;;;;;5026389;28;19935;-86
2023/06/07 10:03:26;;;;;;;;;;;17.30;99.90;;;;;;5008621;28;20015;-86
2023/06/07 10:05:51;;;;;;;;;;;17.50;99.90;;;;;;5008586;28;19932;-85
2023/06/07 10:08:17;;;;;;;;;;;17.50;99.90;;;;;;5002539;28;19928;-85
2023/06/07 10:10:43;;;;;;;;;;;17.50;99.90;;;;;;5001604;28;20022;-87
2023/06/07 10:13:12;;;;;;;;;;;17.50;99.90;;;;;;5036011;28;19982;-87
2023/06/07 10:15:40;;;;;;;;;;;17.50;99.90;;;;;;5013160;28;19988;-87
2023/06/07 10:18:17;;;;;;;;;;;17.70;99.90;;;;;;5028047;28;19972;-87
2023/06/07 10:20:57;;;;;;;;;;;17.90;99.90;;;;;;5001388;28;19933;-88
2023/06/07 10:23:28;;;;;;;;;;;17.90;99.90;;;;;;5028380;28;19925;-87
2023/06/07 10:25:58;;;;;;;;;;;18.10;99.90;;;;;;5026283;28;19979;-88
2023/06/07 10:28:38;;;;;;;;;;;18.00;99.90;;;;;;5025337;28;20290;-87
2023/06/07 10:31:08;;;;;;;;;;;18.10;99.90;;;;;;5026035;28;19925;-86
2023/06/07 10:33:35;;;;;;;;;;;18.20;99.90;;;;;;5013188;28;19928;-87
2023/06/07 10:36:01;;;;;;;;;;;18.20;99.90;;;;;;5030251;28;20029;-85
2023/06/07 10:38:33;;;;;;;;;;;18.20;99.90;;;;;;5027890;28;20302;-87
2023/06/07 10:40:59;;;;;;;;;;;17.50;99.90;;;;;;5013289;28;20301;-87
2023/06/07 10:43:27;;;;;;;;;;;18.10;99.90;;;;;;5018985;28;19964;-86
2023/06/07 10:46:12;;;;;;;;;;;18.10;99.90;;;;;;5035630;28;19925;-86
2023/06/07 10:48:40;;;;;;;;;;;18.00;99.90;;;;;;5024522;28;19925;-88
2023/06/07 10:51:05;;;;;;;;;;;18.10;99.90;;;;;;5019211;28;19985;-87
2023/06/07 10:53:48;;;;;;;;;;;18.20;99.90;;;;;;5032459;28;20335;-88
2023/06/07 10:56:33;;;;;;;;;;;18.30;99.90;;;;;;5021048;28;19925;-88
2023/06/07 10:59:19;;;;;;;;;;;18.40;99.90;;;;;;5021453;28;19982;-87
2023/06/07 11:01:53;;;;;;;;;;;18.40;99.90;;;;;;5016349;28;19924;-88
2023/06/07 11:04:39;;;;;;;;;;;18.50;99.90;;;;;;5030065;28;20342;-87
2023/06/07 11:07:23;;;;;;;;;;;18.60;99.90;;;;;;5023608;28;20359;-87
2023/06/07 11:10:09;;;;;;;;;;;18.70;99.90;;;;;;5030267;28;19932;-87
2023/06/07 11:12:35;;;;;;;;;;;18.60;99.90;;;;;;5017584;28;19925;-86
2023/06/07 11:15:25;;;;;;;;;;;18.70;99.90;;;;;;5015050;28;19925;-87
2023/06/07 11:17:57;;;;;;;;;;;18.70;99.90;;;;;;5015379;28;19933;-88
2023/06/07 11:20:42;;;;;;;;;;;18.80;99.90;;;;;;5015323;28;20019;-91
2023/06/07 11:23:21;;;;;;;;;;;18.90;99.90;;;;;;5034934;28;19932;-88
2023/06/07 11:25:47;;;;;;;;;;;20.70;99.90;;;;;;4995415;28;19929;-85
2023/06/07 11:28:15;;;;;;;;;;;19.90;99.90;;;;;;5034536;28;19928;-85
2023/06/07 11:30:42;;;;;;;;;;;19.00;99.90;;;;;;5037925;28;19925;-86
2023/06/07 11:33:13;;;;;;;;;;;18.90;99.90;;;;;;5026053;28;19929;-85
2023/06/07 11:35:40;;;;;;;;;;;19.00;99.90;;;;;;5026733;28;19972;-85
2023/06/07 11:38:06;;;;;;;;;;;19.10;99.90;;;;;;5021678;28;19924;-85
2023/06/07 11:40:31;;;;;;;;;;;19.20;99.90;;;;;;5037921;28;19925;-85
2023/06/07 11:42:57;;;;;;;;;;;19.00;99.90;;;;;;5021433;28;19929;-85
2023/06/07 11:45:22;;;;;;;;;;;18.90;99.90;;;;;;5033017;28;19925;-84
2023/06/07 11:47:48;;;;;;;;;;;19.10;99.90;;;;;;5028883;28;19999;-85
2023/06/07 11:50:14;;;;;;;;;;;19.10;99.90;;;;;;5018568;28;19933;-84
2023/06/07 11:52:40;;;;;;;;;;;19.20;99.90;;;;;;5022634;28;19940;-85
2023/06/07 11:55:08;;;;;;;;;;;19.20;99.90;;;;;;5030246;28;19925;-85
2023/06/07 11:57:37;;;;;;;;;;;19.20;99.90;;;;;;5027868;28;19978;-85
2023/06/07 12:00:12;;;;;;;;;;;19.40;99.90;;;;;;5028272;28;19933;-84
2023/06/07 12:02:40;;;;;;;;;;;19.50;99.90;;;;;;5034054;28;19925;-85
2023/06/07 12:05:06;;;;;;;;;;;19.60;99.90;;;;;;5027537;28;19993;-86
2023/06/07 12:07:31;;;;;;;;;;;19.50;99.90;;;;;;5033675;28;20060;-85
2023/06/07 12:09:57;;;;;;;;;;;19.60;99.90;;;;;;5004130;28;19968;-86
2023/06/07 12:12:23;;;;;;;;;;;19.70;99.90;;;;;;5036870;28;20316;-86
2023/06/07 12:14:58;;;;;;;;;;;19.70;99.90;;;;;;5021042;28;19932;-85
2023/06/07 12:17:24;;;;;;;;;;;19.80;99.90;;;;;;5021143;28;19947;-86
2023/06/07 12:19:49;;;;;;;;;;;20.00;99.90;;;;;;5035717;28;20363;-85
2023/06/07 12:22:15;;;;;;;;;;;20.00;99.90;;;;;;5020666;28;20421;-84
2023/06/07 12:24:41;;;;;;;;;;;19.90;99.90;;;;;;5033589;28;19929;-85
2023/06/07 12:27:11;;;;;;;;;;;20.00;99.90;;;;;;5027621;28;19937;-88
2023/06/07 12:29:38;;;;;;;;;;;19.90;99.90;;;;;;5021748;28;19929;-85
2023/06/07 12:32:04;;;;;;;;;;;20.00;99.90;;;;;;5033499;28;19929;-86
2023/06/07 12:34:30;;;;;;;;;;;20.00;99.90;;;;;;5032179;28;20015;-87
2023/06/07 12:36:56;;;;;;;;;;;20.20;99.90;;;;;;5028834;28;19972;-86
2023/06/07 12:39:26;;;;;;;;;;;20.40;99.90;;;;;;5031792;28;19924;-86
2023/06/07 12:41:52;;;;;;;;;;;20.40;99.90;;;;;;5024941;28;19925;-86
2023/06/07 12:44:17;;;;;;;;;;;20.30;99.90;;;;;;5015992;28;19941;-87
2023/06/07 12:46:43;;;;;;;;;;;20.30;99.90;;;;;;5026375;28;19932;-86
2023/06/07 12:49:08;;;;;;;;;;;20.40;99.90;;;;;;5022442;28;19925;-85
2023/06/07 12:51:34;;;;;;;;;;;20.50;99.90;;;;;;5027285;28;19924;-84
2023/06/07 12:54:00;;;;;;;;;;;20.40;99.90;;;;;;5030901;28;19925;-83
2023/06/07 12:56:26;;;;;;;;;;;20.40;99.90;;;;;;5027371;28;19974;-85
2023/06/07 12:58:53;;;;;;;;;;;20.30;99.90;;;;;;5031801;28;20066;-86
2023/06/07 13:01:18;;;;;;;;;;;20.40;99.90;;;;;;5016248;28;19992;-85
2023/06/07 13:03:44;;;;;;;;;;;20.30;99.80;;;;;;5017319;28;19936;-86
2023/06/07 13:06:10;;;;;;;;;;;20.20;99.90;;;;;;5019110;28;19929;-84
2023/06/07 13:08:36;;;;;;;;;;;20.40;99.50;;;;;;5017729;28;20409;-85
2023/06/07 13:11:02;;;;;;;;;;;20.20;99.90;;;;;;5035230;28;19932;-87
2023/06/07 13:13:28;;;;;;;;;;;20.20;99.90;;;;;;5021667;28;20371;-86
2023/06/07 13:15:54;;;;;;;;;;;20.30;99.90;;;;;;5018035;28;19925;-84
2023/06/07 13:18:20;;;;;;;;;;;20.40;99.90;;;;;;5030279;28;20035;-86
2023/06/07 13:20:46;;;;;;;;;;;20.30;99.90;;;;;;5031205;28;20011;-86
2023/06/07 13:23:11;;;;;;;;;;;20.30;99.90;;;;;;5015712;28;19924;-86
2023/06/07 13:25:37;;;;;;;;;;;20.40;99.90;;;;;;5034283;28;19929;-87
2023/06/07 13:28:03;;;;;;;;;;;20.30;99.80;;;;;;5030161;28;20382;-86
2023/06/07 13:30:31;;;;;;;;;;;20.20;99.90;;;;;;5030221;28;20067;-86
2023/06/07 13:32:56;;;;;;;;;;;20.20;99.90;;;;;;5028349;28;19968;-87
2023/06/07 13:35:22;;;;;;;;;;;20.20;99.90;;;;;;5034366;28;19968;-85
2023/06/07 13:37:48;;;;;;;;;;;20.20;99.90;;;;;;5033466;28;19924;-85
2023/06/07 13:40:13;;;;;;;;;;;20.20;99.90;;;;;;5011340;28;19924;-85
2023/06/07 13:42:39;;;;;;;;;;;20.10;99.90;;;;;;5009715;28;19960;-86
2023/06/07 13:45:05;;;;;;;;;;;20.20;99.90;;;;;;5022705;28;19932;-85
2023/06/07 13:47:30;;;;;;;;;;;20.30;99.90;;;;;;5026982;28;19974;-85
2023/06/07 13:49:56;;;;;;;;;;;20.30;99.80;;;;;;5009230;28;20138;-85
2023/06/07 13:52:22;;;;;;;;;;;20.40;99.90;;;;;;5043875;28;19924;-85
2023/06/07 13:54:48;;;;;;;;;;;20.40;99.30;;;;;;5015999;28;19935;-85
2023/06/07 13:57:15;;;;;;;;;;;20.40;98.80;;;;;;5051092;28;19931;-84
2023/06/07 13:59:41;;;;;;;;;;;20.40;99.30;;;;;;5012802;28;20323;-84
2023/06/07 14:02:09;;;;;;;;;;;20.50;98.80;;;;;;5026208;28;19940;-85
2023/06/07 14:04:34;;;;;;;;;;;20.20;99.80;;;;;;5030422;28;19925;-86
2023/06/07 14:07:00;;;;;;;;;;;20.30;99.90;;;;;;5050678;28;20015;-85
2023/06/07 14:09:26;;;;;;;;;;;20.30;99.80;;;;;;5032443;28;19931;-85
2023/06/07 14:11:51;;;;;;;;;;;20.30;99.60;;;;;;5017585;28;19925;-85
2023/06/07 14:14:17;;;;;;;;;;;20.30;99.60;;;;;;5031954;28;19935;-85
2023/06/07 14:16:42;;;;;;;;;;;20.20;99.50;;;;;;5033505;28;19956;-86
2023/06/07 14:19:08;;;;;;;;;;;20.10;99.50;;;;;;5046534;28;19925;-86
2023/06/07 14:21:34;;;;;;;;;;;20.20;99.50;;;;;;5033399;28;19936;-85